Flight Track Log - Related Links

Times and Time Zones

All times are in EST time to prevent confusion due to time zone crossing. See the CPZ5714 flight status page for this flight to view local times or setup timezone preferences in your user account.

Time Position Orientation Groundspeed Altitude Reporting Facility
EST Latitude Longitude Course Direction KTS MPH feet Rate Location/Type
Thu 06:11:45 PM 40.6500 -74.1833 304° West 173 199 1,900  Level New York TRACON
Thu 06:12:45 PM 40.6500 -74.2667 270° West 216 249 3,700 2,350 Climbing New York TRACON
Thu 06:13:45 PM 40.6833 -74.3500 298° West 264 304 6,600 2,250 Climbing New York TRACON
Thu 06:14:00 PM 40.8493 -74.6593 304° West  Level Estimated
Thu 06:14:45 PM 40.7667 -74.3333 North 277 319 8,200  Level New York TRACON
Thu 06:15:00 PM 40.8881 -74.7823 270° West  Level Estimated
Thu 06:15:45 PM 40.8333 -74.3333 360° North 283 326 9,800  Level New York TRACON
Thu 06:16:00 PM 40.9269 -74.9055 298° West  Level Estimated
Thu 06:16:45 PM 40.9167 -74.3333 360° North 314 361 10,900  Level New York TRACON
Thu 06:17:00 PM 40.9655 -75.0288 304° West  Level Estimated
Thu 06:17:45 PM 41.0167 -74.3500 353° North 355 409 13,200  Level New York TRACON
Thu 06:19:05 PM 41.1575 -74.3481 North 383 441 15,900 1,886 Climbing New York Center
Thu 06:20:05 PM 41.2417 -74.3856 341° North 366 421 17,600 1,686 Climbing New York Center
Thu 06:21:06 PM 41.3197 -74.4864 316° Northwest 343 395 19,300 1,537 Climbing New York Center
Thu 06:22:06 PM 41.3800 -74.5589 318° Northwest 356 410 20,700 1,550 Climbing New York Center
Thu 06:23:06 PM 41.4556 -74.6628 314° West 361 415 22,400 1,563 Climbing New York Center
Thu 06:24:05 PM 41.4933 -74.7842 293° West 361 415 23,800 1,412 Climbing New York Center
Thu 06:25:05 PM 41.5325 -74.9111 292° West 361 415 25,200 1,250 Climbing New York Center
Thu 06:26:05 PM 41.5719 -75.0383 293° West 361 415 26,300 1,100 Climbing New York Center
Thu 06:27:05 PM 41.6067 -75.1653 290° West 366 421 27,400 1,041 Climbing New York Center
Thu 06:28:06 PM 41.6514 -75.3072 293° West 373 429 28,400 900 Climbing New York Center
Thu 06:29:05 PM 41.6881 -75.4375 291° West 379 436 29,200 756 Climbing New York Center
Thu 06:30:05 PM 41.7264 -75.5681 292° West 379 436 29,900 700 Climbing New York Center
Thu 06:31:05 PM 41.7628 -75.6983 291° West 379 436 30,600 700 Climbing New York Center
Thu 06:32:05 PM 41.8011 -75.8292 291° West 379 436 31,300 744 Climbing New York Center
Thu 06:33:06 PM 41.8392 -75.9575 292° West 379 436 32,100 650 Climbing New York Center
Thu 06:34:05 PM 41.8753 -76.0856 291° West 379 436 32,600 500 Climbing New York Center
Thu 06:35:06 PM 41.9131 -76.2142 292° West 379 436 33,100 450 Climbing New York Center
Thu 06:36:05 PM 41.9489 -76.3425 291° West 379 436 33,500 353 Climbing New York Center
Thu 06:37:05 PM 41.9808 -76.4569 291° West 379 436 33,800 154 Climbing New York Center
Thu 06:39:20 PM 42.0667 -76.7333 293° West 380 437 34,000 62 Climbing Toronto Center
Thu 06:40:20 PM 42.1000 -76.8667 289° West 380 437 34,000  Level Toronto Center
Thu 06:41:20 PM 42.1333 -77.0000 289° West 380 437 34,000  Level Toronto Center
Thu 06:42:20 PM 42.1667 -77.1333 289° West 380 437 34,000  Level Toronto Center
Thu 06:43:20 PM 42.2000 -77.2667 289° West 380 437 34,000  Level Toronto Center
Thu 06:44:20 PM 42.2333 -77.4000 289° West 380 437 34,000  Level Toronto Center
Thu 06:45:20 PM 42.2833 -77.5333 297° West 380 437 34,000  Level Toronto Center
Thu 06:46:20 PM 42.3167 -77.6667 289° West 380 437 34,000  Level Toronto Center
Thu 06:46:51 PM 42.3369 -77.7569 287° West 379 436 34,000  Level Cleveland Center
Thu 06:47:53 PM 42.3725 -77.8928 290° West 380 437 34,000  Level Cleveland Center
Thu 06:48:55 PM 42.4081 -78.0283 290° West 380 437 34,000  Level Cleveland Center
Thu 06:49:58 PM 42.4444 -78.1628 290° West 379 436 34,000  Level Cleveland Center
Thu 06:51:00 PM 42.4797 -78.2989 289° West 381 438 34,000  Level Cleveland Center
Thu 06:52:02 PM 42.5222 -78.4606 290° West 381 438 34,000  Level Cleveland Center
Thu 06:53:04 PM 42.5586 -78.5964 290° West 384 442 34,000  Level Cleveland Center
Thu 06:54:06 PM 42.5933 -78.7328 289° West 383 441 34,000  Level Cleveland Center
Thu 06:55:08 PM 42.6269 -78.8686 289° West 379 436 34,000  Level Cleveland Center
Thu 06:56:10 PM 42.6628 -79.0036 290° West 380 437 34,000  Level Cleveland Center
Thu 06:57:12 PM 42.6964 -79.1403 289° West 381 438 34,000  Level Cleveland Center
Thu 06:58:14 PM 42.7386 -79.3047 289° West 383 441 34,000  Level Cleveland Center
Thu 06:59:16 PM 42.7733 -79.4428 289° West 385 443 34,000  Level Cleveland Center
Thu 07:00:18 PM 42.8078 -79.5806 289° West 385 443 34,000  Level Cleveland Center
Thu 07:01:21 PM 42.8414 -79.7181 288° West 385 443 34,000  Level Cleveland Center
Thu 07:02:10 PM 42.8683 -79.8281 289° West 384 442 34,000  Level Cleveland Center
Thu 07:03:12 PM 42.9047 -79.9833 288° West 383 441 34,000  Level Cleveland Center
Thu 07:04:14 PM 42.9383 -80.1233 288° West 384 442 34,000  Level Cleveland Center
Thu 07:05:16 PM 42.9719 -80.2636 288° West 386 444 34,000  Level Cleveland Center
Thu 07:06:18 PM 43.0053 -80.4042 288° West 387 445 34,000  Level Cleveland Center
Thu 07:07:21 PM 43.0378 -80.5442 288° West 385 443 34,000  Level Cleveland Center
Thu 07:08:23 PM 43.0769 -80.7089 288° West 388 447 34,000  Level Cleveland Center
Thu 07:09:25 PM 43.1100 -80.8503 288° West 387 445 34,000  Level Cleveland Center
Thu 07:10:27 PM 43.1433 -80.9917 288° West 388 447 34,000  Level Cleveland Center
Thu 07:11:29 PM 43.1758 -81.1331 288° West 386 444 34,000  Level Cleveland Center
Thu 07:12:20 PM 43.1833 -81.2500 275° West 390 449 34,000  Level Toronto Center
Thu 07:13:20 PM 43.2333 -81.4000 295° West 390 449 34,000  Level Toronto Center
Thu 07:14:20 PM 43.2667 -81.5333 289° West 390 449 34,000  Level Toronto Center
Thu 07:15:20 PM 43.3000 -81.7000 285° West 400 460 34,000  Level Toronto Center
Thu 07:16:20 PM 43.3333 -81.8333 289° West 400 460 34,000  Level Toronto Center
Thu 07:17:20 PM 43.3500 -81.9667 280° West 390 449 34,000  Level Toronto Center
Thu 07:18:20 PM 43.3833 -82.1167 287° West 390 449 34,000  Level Toronto Center
Thu 07:19:20 PM 43.4167 -82.2500 289° West 390 449 34,000  Level Toronto Center
Thu 07:20:20 PM 43.4500 -82.4167 285° West 390 449 34,000  Level Toronto Center
Thu 07:21:20 PM 43.4833 -82.5500 289° West 400 460 34,000  Level Toronto Center
Thu 07:22:20 PM 43.5167 -82.6833 289° West 400 460 34,000  Level Toronto Center
Thu 07:22:50 PM 43.5358 -82.7522 291° West 398 458 34,000  Level Cleveland Center
Thu 07:23:52 PM 43.5736 -82.9256 287° West 397 457 34,000  Level Cleveland Center
Thu 07:24:54 PM 43.6044 -83.0714 286° West 397 457 34,000  Level Cleveland Center
Thu 07:25:57 PM 43.6344 -83.2158 286° West 395 455 34,000  Level Cleveland Center
Thu 07:27:05 PM 43.6658 -83.3722 286° West 397 457 34,000  Level Minneapolis Center
Thu 07:28:07 PM 43.7031 -83.5472 286° West 397 457 34,000  Level Minneapolis Center
Thu 07:29:08 PM 43.7328 -83.6942 286° West 398 458 34,000  Level Minneapolis Center
Thu 07:30:10 PM 43.7603 -83.8408 285° West 397 457 34,000  Level Minneapolis Center
Thu 07:31:12 PM 43.7881 -83.9886 285° West 398 458 34,000  Level Minneapolis Center
Thu 07:32:14 PM 43.8133 -84.1361 283° West 396 456 34,000  Level Minneapolis Center
Thu 07:33:16 PM 43.8419 -84.2861 285° West 401 461 34,000  Level Minneapolis Center
Thu 07:34:18 PM 43.8731 -84.4658 284° West 402 463 34,000  Level Minneapolis Center
Thu 07:35:20 PM 43.9011 -84.6158 285° West 403 464 34,000  Level Minneapolis Center
Thu 07:36:22 PM 43.9281 -84.7669 284° West 404 465 34,000  Level Minneapolis Center
Thu 07:37:24 PM 43.9544 -84.9192 284° West 407 468 34,000  Level Minneapolis Center
Thu 07:38:25 PM 43.9808 -85.0692 284° West 405 466 34,000  Level Minneapolis Center
Thu 07:39:27 PM 44.0075 -85.2203 284° West 405 466 34,000  Level Minneapolis Center
Thu 07:40:29 PM 44.0397 -85.4028 284° West 407 468 34,000  Level Minneapolis Center
Thu 07:41:31 PM 44.0647 -85.5536 283° West 404 465 34,000  Level Minneapolis Center
Thu 07:42:33 PM 44.0908 -85.7031 284° West 403 464 34,000  Level Minneapolis Center
Thu 07:43:35 PM 44.1156 -85.8567 283° West 404 465 34,000  Level Minneapolis Center
Thu 07:44:37 PM 44.1403 -86.0097 283° West 404 465 34,000  Level Minneapolis Center
Thu 07:45:38 PM 44.1656 -86.1614 283° West 402 463 34,000  Level Minneapolis Center
Thu 07:46:40 PM 44.1908 -86.3158 283° West 407 468 34,000  Level Minneapolis Center
Thu 07:47:42 PM 44.2211 -86.5028 283° West 410 472 34,000  Level Minneapolis Center
Thu 07:48:43 PM 44.2458 -86.6614 282° West 415 478 34,000  Level Minneapolis Center
Thu 07:49:45 PM 44.2711 -86.8183 283° West 416 479 34,000  Level Minneapolis Center
Thu 07:50:47 PM 44.2953 -86.9753 282° West 414 476 34,000  Level Minneapolis Center
Thu 07:51:49 PM 44.3197 -87.1319 282° West 414 476 34,000  Level Minneapolis Center
Thu 07:52:50 PM 44.3431 -87.2883 282° West 414 476 34,000  Level Minneapolis Center
Thu 07:53:52 PM 44.3675 -87.4442 282° West 414 476 34,000  Level Minneapolis Center
Thu 07:54:54 PM 44.3956 -87.6331 282° West 416 479 34,000  Level Minneapolis Center
Thu 07:55:56 PM 44.4189 -87.7903 282° West 417 480 34,000  Level Minneapolis Center
Thu 07:56:58 PM 44.4411 -87.9478 281° West 417 480 34,000  Level Minneapolis Center
Thu 07:57:59 PM 44.4639 -88.1039 282° West 414 476 34,000  Level Minneapolis Center
Thu 07:59:01 PM 44.4867 -88.2628 281° West 418 481 34,000  Level Minneapolis Center
Thu 08:00:04 PM 44.5086 -88.4197 281° West 414 476 34,000  Level Minneapolis Center
Thu 08:01:05 PM 44.5353 -88.6111 281° West 418 481 34,000  Level Minneapolis Center
Thu 08:02:07 PM 44.5586 -88.7692 282° West 417 480 34,000  Level Minneapolis Center
Thu 08:03:09 PM 44.5797 -88.9286 281° West 417 480 34,000 -145 Level Minneapolis Center
Thu 08:04:11 PM 44.6019 -89.0878 281° West 419 482 33,700 -634 Descending Minneapolis Center
Thu 08:05:12 PM 44.6231 -89.2486 281° West 421 484 32,700 -829 Descending Minneapolis Center
Thu 08:06:14 PM 44.6436 -89.4111 280° West 423 487 32,000 -339 Descending Minneapolis Center
Thu 08:07:16 PM 44.6706 -89.6064 281° West 425 489 32,000  Level Minneapolis Center
Thu 08:08:18 PM 44.6911 -89.7714 280° West 429 494 32,000  Level Minneapolis Center
Thu 08:09:20 PM 44.7125 -89.9375 280° West 433 498 32,000  Level Minneapolis Center
Thu 08:10:21 PM 44.7322 -90.1014 280° West 430 495 32,000  Level Minneapolis Center
Thu 08:11:23 PM 44.7547 -90.2664 281° West 430 495 32,000  Level Minneapolis Center
Thu 08:12:25 PM 44.7742 -90.4328 279° West 432 497 32,000  Level Minneapolis Center
Thu 08:13:27 PM 44.7956 -90.6108 280° West 431 496 32,000 -146 Level Minneapolis Center
Thu 08:14:28 PM 44.8169 -90.7775 280° West 433 498 31,700 -1,220 Descending Minneapolis Center
Thu 08:15:30 PM 44.8372 -90.9436 280° West 432 497 29,500 -2,419 Descending Minneapolis Center
Thu 08:16:32 PM 44.8583 -91.1447 278° West 433 498 26,700 -2,390 Descending Minneapolis Center
Thu 08:17:33 PM 44.8769 -91.3036 279° West 422 486 24,600 -2,049 Descending Minneapolis Center
Thu 08:18:35 PM 44.8956 -91.4553 280° West 405 466 22,500 -2,032 Descending Minneapolis Center
Thu 08:19:37 PM 44.9194 -91.6022 283° West 391 450 20,400 -2,000 Descending Minneapolis Center
Thu 08:20:38 PM 44.9481 -91.7453 286° West 382 440 18,400 -1,951 Descending Minneapolis Center
Thu 08:21:40 PM 44.9750 -91.8847 285° West 374 430 16,400 -1,839 Descending Minneapolis Center
Thu 08:22:42 PM 44.9997 -92.0197 285° West 359 413 14,600 -1,984 Descending Minneapolis Center
Thu 08:23:44 PM 45.0289 -92.1803 284° West 353 406 12,300 -1,805 Descending Minneapolis Center
Thu 08:24:45 PM 45.0458 -92.3117 280° West 346 398 10,900 -634 Descending Minneapolis Center
Thu 08:25:47 PM 45.0250 -92.4414 257° West 340 391 11,000 48 Climbing Minneapolis Center
Thu 08:26:49 PM 45.0042 -92.5719 257° West 341 392 11,000  Level Minneapolis Center
Thu 08:27:50 PM 44.9842 -92.7017 258° West 341 392 11,000 -49 Level Minneapolis Center
Thu 08:28:52 PM 44.9633 -92.8333 257° West 341 392 10,900 -387 Descending Minneapolis Center
Thu 08:29:54 PM 44.9389 -92.9811 257° West 325 374 10,200 -823 Descending Minneapolis Center
Thu 08:30:56 PM 44.9386 -93.0806 270° West 275 316 9,200 -1,161 Descending Minneapolis Center
Thu 08:31:58 PM 44.9811 -93.1647 306° West 265 305 7,800 -1,403 Descending Minneapolis Center
Thu 08:33:00 PM 45.0228 -93.2444 306° West 256 295 6,300 -1,268 Descending Minneapolis Center
Thu 08:34:01 PM 45.0200 -93.3186 267° West 218 251 5,200 -1,268 Descending Minneapolis Center
Thu 08:35:03 PM 44.9658 -93.3528 204° Southwest 185 213 3,700 -1,258 Descending Minneapolis Center
Thu 08:36:05 PM 44.9239 -93.3178 149° Southeast 179 206 2,600 -1,016 Descending Minneapolis Center
Thu 08:37:07 PM 44.9028 -93.2697 122° Southeast 142 163 1,600 -968 Descending Minneapolis Center

Login

Don't have an account? Register now (free) for customized features, flight alerts, and more!